sensor_id;sensor_type;location;lat;lon;timestamp;P1;durP1;ratioP1;P2;durP2;ratioP2
16478;SDS011;8350;52.316;10.530;2023-11-21T09:20:45;2.45;;;2.25;;
16478;SDS011;8350;52.316;10.530;2023-11-21T09:23:18;2.22;;;1.90;;
16478;SDS011;8350;52.316;10.530;2023-11-21T09:25:44;1.98;;;1.77;;
16478;SDS011;8350;52.316;10.530;2023-11-21T09:28:14;2.63;;;2.42;;
16478;SDS011;8350;52.316;10.530;2023-11-21T09:30:42;4.07;;;2.45;;
16478;SDS011;8350;52.316;10.530;2023-11-21T09:33:09;2.22;;;1.52;;
16478;SDS011;8350;52.316;10.530;2023-11-21T09:35:36;3.13;;;2.05;;
16478;SDS011;8350;52.316;10.530;2023-11-21T09:38:05;2.95;;;2.03;;
16478;SDS011;8350;52.316;10.530;2023-11-21T09:40:35;2.67;;;2.38;;
16478;SDS011;8350;52.316;10.530;2023-11-21T09:43:04;2.53;;;1.85;;
16478;SDS011;8350;52.316;10.530;2023-11-21T09:45:41;4.15;;;3.03;;
16478;SDS011;8350;52.316;10.530;2023-11-21T09:48:22;2.83;;;2.00;;
16478;SDS011;8350;52.316;10.530;2023-11-21T09:50:54;3.28;;;2.20;;
16478;SDS011;8350;52.316;10.530;2023-11-21T09:53:23;2.65;;;2.35;;
16478;SDS011;8350;52.316;10.530;2023-11-21T09:55:53;2.72;;;2.13;;
16478;SDS011;8350;52.316;10.530;2023-11-21T09:58:20;2.88;;;2.42;;
16478;SDS011;8350;52.316;10.530;2023-11-21T10:00:57;3.28;;;2.10;;
16478;SDS011;8350;52.316;10.530;2023-11-21T10:03:28;2.90;;;1.85;;
16478;SDS011;8350;52.316;10.530;2023-11-21T10:05:55;2.45;;;2.17;;
16478;SDS011;8350;52.316;10.530;2023-11-21T10:08:34;3.55;;;2.42;;
16478;SDS011;8350;52.316;10.530;2023-11-21T10:11:04;2.92;;;2.00;;
16478;SDS011;8350;52.316;10.530;2023-11-21T10:13:33;2.25;;;2.03;;
16478;SDS011;8350;52.316;10.530;2023-11-21T10:16:00;4.22;;;2.72;;
16478;SDS011;8350;52.316;10.530;2023-11-21T10:18:30;2.95;;;2.17;;
16478;SDS011;8350;52.316;10.530;2023-11-21T10:21:05;2.60;;;1.65;;
16478;SDS011;8350;52.316;10.530;2023-11-21T10:23:36;1.95;;;1.85;;
16478;SDS011;8350;52.316;10.530;2023-11-21T10:26:04;2.45;;;2.25;;
16478;SDS011;8350;52.316;10.530;2023-11-21T10:28:41;2.97;;;2.28;;
16478;SDS011;8350;52.316;10.530;2023-11-21T10:31:31;3.53;;;2.60;;
16478;SDS011;8350;52.316;10.530;2023-11-21T10:34:12;2.60;;;2.28;;
16478;SDS011;8350;52.316;10.530;2023-11-21T10:36:52;2.55;;;2.28;;
16478;SDS011;8350;52.316;10.530;2023-11-21T10:39:24;2.58;;;2.33;;
16478;SDS011;8350;52.316;10.530;2023-11-21T10:41:58;2.72;;;2.28;;
16478;SDS011;8350;52.316;10.530;2023-11-21T10:44:31;4.50;;;2.67;;
16478;SDS011;8350;52.316;10.530;2023-11-21T10:47:00;2.72;;;2.45;;
16478;SDS011;8350;52.316;10.530;2023-11-21T10:49:34;3.22;;;2.92;;
16478;SDS011;8350;52.316;10.530;2023-11-21T10:52:07;3.85;;;2.65;;
16478;SDS011;8350;52.316;10.530;2023-11-21T10:54:41;3.00;;;2.70;;
16478;SDS011;8350;52.316;10.530;2023-11-21T10:57:08;3.25;;;2.50;;
16478;SDS011;8350;52.316;10.530;2023-11-21T10:59:40;4.40;;;3.15;;
16478;SDS011;8350;52.316;10.530;2023-11-21T11:02:10;3.92;;;3.33;;
16478;SDS011;8350;52.316;10.530;2023-11-21T11:04:47;2.38;;;1.67;;
16478;SDS011;8350;52.316;10.530;2023-11-21T11:07:15;3.55;;;2.50;;
16478;SDS011;8350;52.316;10.530;2023-11-21T11:09:44;3.13;;;2.83;;
16478;SDS011;8350;52.316;10.530;2023-11-21T11:12:12;3.50;;;2.58;;
16478;SDS011;8350;52.316;10.530;2023-11-21T11:14:44;3.63;;;3.08;;
16478;SDS011;8350;52.316;10.530;2023-11-21T11:17:16;3.60;;;2.50;;
16478;SDS011;8350;52.316;10.530;2023-11-21T11:19:46;2.90;;;2.60;;
16478;SDS011;8350;52.316;10.530;2023-11-21T11:22:17;2.20;;;2.00;;
16478;SDS011;8350;52.316;10.530;2023-11-21T11:25:05;2.75;;;2.42;;
16478;SDS011;8350;52.316;10.530;2023-11-21T11:27:52;2.33;;;2.13;;
16478;SDS011;8350;52.316;10.530;2023-11-21T11:30:27;4.28;;;2.08;;
16478;SDS011;8350;52.316;10.530;2023-11-21T11:33:08;3.05;;;2.08;;
16478;SDS011;8350;52.316;10.530;2023-11-21T11:35:42;2.63;;;2.10;;
16478;SDS011;8350;52.316;10.530;2023-11-21T11:38:17;2.88;;;2.53;;
16478;SDS011;8350;52.316;10.530;2023-11-21T11:40:46;2.75;;;2.53;;
16478;SDS011;8350;52.316;10.530;2023-11-21T11:43:13;3.00;;;2.35;;
16478;SDS011;8350;52.316;10.530;2023-11-21T11:45:51;2.10;;;1.90;;
16478;SDS011;8350;52.316;10.530;2023-11-21T11:48:23;2.40;;;2.20;;
16478;SDS011;8350;52.316;10.530;2023-11-21T11:51:05;2.92;;;2.03;;
16478;SDS011;8350;52.316;10.530;2023-11-21T11:53:38;2.67;;;2.47;;
16478;SDS011;8350;52.316;10.530;2023-11-21T11:56:21;1.95;;;1.73;;
16478;SDS011;8350;52.316;10.530;2023-11-21T11:58:52;3.22;;;2.00;;
16478;SDS011;8350;52.316;10.530;2023-11-21T12:01:21;2.60;;;2.10;;
16478;SDS011;8350;52.316;10.530;2023-11-21T12:06:59;2.70;;;2.50;;
16478;SDS011;8350;52.316;10.530;2023-11-21T12:09:28;2.80;;;2.08;;
16478;SDS011;8350;52.316;10.530;2023-11-21T12:11:59;2.22;;;2.03;;
16478;SDS011;8350;52.316;10.530;2023-11-21T12:14:26;2.15;;;1.98;;
16478;SDS011;8350;52.316;10.530;2023-11-21T12:16:54;2.15;;;1.95;;
16478;SDS011;8350;52.316;10.530;2023-11-21T12:19:21;2.00;;;1.80;;
16478;SDS011;8350;52.316;10.530;2023-11-21T12:21:48;2.80;;;2.45;;
16478;SDS011;8350;52.316;10.530;2023-11-21T12:24:16;2.55;;;1.88;;
16478;SDS011;8350;52.316;10.530;2023-11-21T12:26:43;2.00;;;1.80;;
16478;SDS011;8350;52.316;10.530;2023-11-21T12:29:11;2.58;;;2.38;;
16478;SDS011;8350;52.316;10.530;2023-11-21T12:31:38;2.97;;;1.98;;
16478;SDS011;8350;52.316;10.530;2023-11-21T12:34:06;2.10;;;1.63;;
16478;SDS011;8350;52.316;10.530;2023-11-21T12:36:36;1.92;;;1.83;;
16478;SDS011;8350;52.316;10.530;2023-11-21T12:39:03;2.33;;;2.10;;
16478;SDS011;8350;52.316;10.530;2023-11-21T12:41:31;3.10;;;2.72;;
16478;SDS011;8350;52.316;10.530;2023-11-21T12:43:58;3.40;;;2.42;;
16478;SDS011;8350;52.316;10.530;2023-11-21T12:46:26;1.75;;;1.65;;
16478;SDS011;8350;52.316;10.530;2023-11-21T12:49:01;2.53;;;1.88;;
16478;SDS011;8350;52.316;10.530;2023-11-21T12:51:29;2.65;;;1.77;;
16478;SDS011;8350;52.316;10.530;2023-11-21T12:53:56;2.97;;;2.35;;
16478;SDS011;8350;52.316;10.530;2023-11-21T12:56:30;2.40;;;1.80;;
16478;SDS011;8350;52.316;10.530;2023-11-21T12:58:58;2.25;;;1.15;;
16478;SDS011;8350;52.316;10.530;2023-11-21T13:01:27;1.75;;;1.10;;
16478;SDS011;8350;52.316;10.530;2023-11-21T13:03:56;3.10;;;2.40;;
16478;SDS011;8350;52.316;10.530;2023-11-21T13:06:24;2.28;;;1.48;;
16478;SDS011;8350;52.316;10.530;2023-11-21T13:08:51;2.92;;;1.73;;
16478;SDS011;8350;52.316;10.530;2023-11-21T13:11:22;1.35;;;1.23;;
16478;SDS011;8350;52.316;10.530;2023-11-21T13:13:51;1.63;;;1.48;;
16478;SDS011;8350;52.316;10.530;2023-11-21T13:16:19;1.90;;;1.80;;
16478;SDS011;8350;52.316;10.530;2023-11-21T13:18:48;1.70;;;1.48;;
16478;SDS011;8350;52.316;10.530;2023-11-21T13:21:15;1.88;;;1.75;;
16478;SDS011;8350;52.316;10.530;2023-11-21T13:23:42;1.65;;;1.42;;
16478;SDS011;8350;52.316;10.530;2023-11-21T13:26:11;2.03;;;1.90;;
16478;SDS011;8350;52.316;10.530;2023-11-21T13:28:39;1.63;;;1.52;;
16478;SDS011;8350;52.316;10.530;2023-11-21T13:31:11;1.75;;;1.65;;
16478;SDS011;8350;52.316;10.530;2023-11-21T13:33:46;1.42;;;1.20;;
16478;SDS011;8350;52.316;10.530;2023-11-21T13:36:20;1.88;;;1.70;;
16478;SDS011;8350;52.316;10.530;2023-11-21T13:38:51;1.20;;;1.10;;
16478;SDS011;8350;52.316;10.530;2023-11-21T13:41:18;2.47;;;2.28;;
16478;SDS011;8350;52.316;10.530;2023-11-21T13:43:47;2.72;;;2.50;;
16478;SDS011;8350;52.316;10.530;2023-11-21T13:46:22;6.35;;;3.20;;
16478;SDS011;8350;52.316;10.530;2023-11-21T13:48:53;5.18;;;3.33;;
16478;SDS011;8350;52.316;10.530;2023-11-21T13:51:21;3.97;;;3.40;;
16478;SDS011;8350;52.316;10.530;2023-11-21T13:53:56;2.25;;;2.05;;
16478;SDS011;8350;52.316;10.530;2023-11-21T13:56:24;2.25;;;1.48;;
16478;SDS011;8350;52.316;10.530;2023-11-21T13:58:53;1.10;;;1.05;;
16478;SDS011;8350;52.316;10.530;2023-11-21T14:01:21;1.73;;;1.63;;
16478;SDS011;8350;52.316;10.530;2023-11-21T14:04:13;2.75;;;2.55;;
16478;SDS011;8350;52.316;10.530;2023-11-21T14:06:56;1.75;;;1.55;;
16478;SDS011;8350;52.316;10.530;2023-11-21T14:09:26;2.63;;;1.40;;
16478;SDS011;8350;52.316;10.530;2023-11-21T14:12:00;1.92;;;1.45;;
16478;SDS011;8350;52.316;10.530;2023-11-21T14:14:37;1.95;;;1.40;;
16478;SDS011;8350;52.316;10.530;2023-11-21T14:17:05;4.15;;;1.58;;
16478;SDS011;8350;52.316;10.530;2023-11-21T14:19:34;2.35;;;1.50;;
16478;SDS011;8350;52.316;10.530;2023-11-21T14:22:05;1.77;;;1.67;;
16478;SDS011;8350;52.316;10.530;2023-11-21T14:24:34;1.30;;;1.20;;
16478;SDS011;8350;52.316;10.530;2023-11-21T14:27:02;2.08;;;1.25;;
16478;SDS011;8350;52.316;10.530;2023-11-21T14:29:30;1.50;;;1.33;;
16478;SDS011;8350;52.316;10.530;2023-11-21T14:32:02;2.35;;;1.58;;
16478;SDS011;8350;52.316;10.530;2023-11-21T14:34:32;1.45;;;1.25;;
16478;SDS011;8350;52.316;10.530;2023-11-21T14:37:02;1.15;;;1.02;;
16478;SDS011;8350;52.316;10.530;2023-11-21T14:39:29;1.85;;;1.27;;
16478;SDS011;8350;52.316;10.530;2023-11-21T14:42:00;2.38;;;2.00;;
16478;SDS011;8350;52.316;10.530;2023-11-21T14:44:28;1.60;;;1.50;;
16478;SDS011;8350;52.316;10.530;2023-11-21T14:47:00;2.13;;;1.58;;
16478;SDS011;8350;52.316;10.530;2023-11-21T14:49:31;1.98;;;1.80;;
16478;SDS011;8350;52.316;10.530;2023-11-21T14:52:14;1.55;;;1.30;;
16478;SDS011;8350;52.316;10.530;2023-11-21T14:54:57;1.17;;;1.02;;
16478;SDS011;8350;52.316;10.530;2023-11-21T14:57:44;1.73;;;1.42;;
16478;SDS011;8350;52.316;10.530;2023-11-21T15:00:15;0.98;;;0.95;;
16478;SDS011;8350;52.316;10.530;2023-11-21T15:03:07;1.17;;;1.17;;
16478;SDS011;8350;52.316;10.530;2023-11-21T15:05:36;2.50;;;1.80;;
16478;SDS011;8350;52.316;10.530;2023-11-21T15:08:05;2.05;;;0.90;;
16478;SDS011;8350;52.316;10.530;2023-11-21T15:10:45;1.50;;;1.40;;
16478;SDS011;8350;52.316;10.530;2023-11-21T15:13:12;1.60;;;1.40;;
16478;SDS011;8350;52.316;10.530;2023-11-21T15:15:39;1.13;;;1.02;;
16478;SDS011;8350;52.316;10.530;2023-11-21T15:18:08;1.67;;;1.40;;
16478;SDS011;8350;52.316;10.530;2023-11-21T15:20:38;1.23;;;1.13;;
16478;SDS011;8350;52.316;10.530;2023-11-21T15:23:06;1.33;;;1.15;;
16478;SDS011;8350;52.316;10.530;2023-11-21T15:25:34;1.83;;;1.42;;
16478;SDS011;8350;52.316;10.530;2023-11-21T15:28:01;1.60;;;1.50;;
16478;SDS011;8350;52.316;10.530;2023-11-21T15:30:29;1.48;;;1.38;;
16478;SDS011;8350;52.316;10.530;2023-11-21T15:32:57;1.48;;;1.27;;
16478;SDS011;8350;52.316;10.530;2023-11-21T15:35:24;1.30;;;1.20;;
16478;SDS011;8350;52.316;10.530;2023-11-21T15:37:54;2.25;;;1.25;;
16478;SDS011;8350;52.316;10.530;2023-11-21T15:40:24;1.58;;;1.20;;
16478;SDS011;8350;52.316;10.530;2023-11-21T15:42:50;1.95;;;1.20;;
16478;SDS011;8350;52.316;10.530;2023-11-21T15:45:17;2.15;;;1.45;;
16478;SDS011;8350;52.316;10.530;2023-11-21T15:47:48;1.58;;;1.38;;
16478;SDS011;8350;52.316;10.530;2023-11-21T15:50:23;1.92;;;1.35;;
16478;SDS011;8350;52.316;10.530;2023-11-21T15:52:50;1.35;;;1.23;;
16478;SDS011;8350;52.316;10.530;2023-11-21T15:55:20;1.55;;;1.45;;
16478;SDS011;8350;52.316;10.530;2023-11-21T15:57:47;1.48;;;1.38;;
16478;SDS011;8350;52.316;10.530;2023-11-21T16:00:20;1.50;;;1.40;;
16478;SDS011;8350;52.316;10.530;2023-11-21T16:02:49;1.63;;;1.40;;
16478;SDS011;8350;52.316;10.530;2023-11-21T16:05:22;2.25;;;2.05;;
16478;SDS011;8350;52.316;10.530;2023-11-21T16:07:50;1.80;;;1.70;;
16478;SDS011;8350;52.316;10.530;2023-11-21T16:10:18;1.80;;;1.70;;
16478;SDS011;8350;52.316;10.530;2023-11-21T16:12:47;1.88;;;1.33;;
16478;SDS011;8350;52.316;10.530;2023-11-21T16:15:15;2.08;;;1.55;;
16478;SDS011;8350;52.316;10.530;2023-11-21T16:17:43;1.77;;;1.60;;
16478;SDS011;8350;52.316;10.530;2023-11-21T16:20:12;2.53;;;1.48;;
16478;SDS011;8350;52.316;10.530;2023-11-21T16:22:40;1.73;;;1.63;;
16478;SDS011;8350;52.316;10.530;2023-11-21T16:25:10;1.95;;;1.73;;
16478;SDS011;8350;52.316;10.530;2023-11-21T16:27:38;2.05;;;1.90;;
16478;SDS011;8350;52.316;10.530;2023-11-21T16:30:09;1.38;;;1.27;;
16478;SDS011;8350;52.316;10.530;2023-11-21T16:32:37;1.70;;;1.40;;
16478;SDS011;8350;52.316;10.530;2023-11-21T16:35:04;3.72;;;1.60;;
16478;SDS011;8350;52.316;10.530;2023-11-21T16:37:31;1.77;;;1.42;;
16478;SDS011;8350;52.316;10.530;2023-11-21T16:39:58;2.63;;;1.38;;
16478;SDS011;8350;52.316;10.530;2023-11-21T16:42:25;0.82;;;0.82;;
16478;SDS011;8350;52.316;10.530;2023-11-21T16:44:57;4.40;;;1.85;;
16478;SDS011;8350;52.316;10.530;2023-11-21T16:47:33;1.90;;;1.67;;
16478;SDS011;8350;52.316;10.530;2023-11-21T16:50:02;1.92;;;1.73;;
16478;SDS011;8350;52.316;10.530;2023-11-21T16:52:29;5.78;;;3.85;;
16478;SDS011;8350;52.316;10.530;2023-11-21T16:54:58;2.40;;;2.20;;
16478;SDS011;8350;52.316;10.530;2023-11-21T16:57:30;4.05;;;2.58;;
16478;SDS011;8350;52.316;10.530;2023-11-21T16:59:57;2.03;;;1.85;;
16478;SDS011;8350;52.316;10.530;2023-11-21T17:02:26;2.65;;;2.45;;
16478;SDS011;8350;52.316;10.530;2023-11-21T17:04:53;2.50;;;1.50;;
16478;SDS011;8350;52.316;10.530;2023-11-21T17:07:24;2.10;;;1.55;;
16478;SDS011;8350;52.316;10.530;2023-11-21T17:09:51;1.90;;;1.80;;
16478;SDS011;8350;52.316;10.530;2023-11-21T17:12:18;1.77;;;1.20;;
16478;SDS011;8350;52.316;10.530;2023-11-21T17:14:45;2.85;;;2.53;;
16478;SDS011;8350;52.316;10.530;2023-11-21T17:17:14;2.05;;;1.90;;
16478;SDS011;8350;52.316;10.530;2023-11-21T17:19:42;2.50;;;1.85;;
16478;SDS011;8350;52.316;10.530;2023-11-21T17:22:10;2.30;;;2.05;;
16478;SDS011;8350;52.316;10.530;2023-11-21T17:24:37;1.83;;;1.70;;
16478;SDS011;8350;52.316;10.530;2023-11-21T17:27:09;2.00;;;1.70;;
16478;SDS011;8350;52.316;10.530;2023-11-21T17:29:38;2.28;;;2.08;;
16478;SDS011;8350;52.316;10.530;2023-11-21T17:32:06;1.98;;;1.73;;
16478;SDS011;8350;52.316;10.530;2023-11-21T17:34:35;2.00;;;1.65;;
16478;SDS011;8350;52.316;10.530;2023-11-21T17:37:06;3.47;;;2.28;;
16478;SDS011;8350;52.316;10.530;2023-11-21T17:39:33;3.10;;;2.13;;
16478;SDS011;8350;52.316;10.530;2023-11-21T17:42:00;2.25;;;1.48;;
16478;SDS011;8350;52.316;10.530;2023-11-21T17:44:30;1.70;;;1.60;;
16478;SDS011;8350;52.316;10.530;2023-11-21T17:46:58;1.85;;;1.75;;
16478;SDS011;8350;52.316;10.530;2023-11-21T17:49:27;1.88;;;1.35;;
16478;SDS011;8350;52.316;10.530;2023-11-21T17:51:53;2.22;;;1.35;;
16478;SDS011;8350;52.316;10.530;2023-11-21T17:57:27;1.70;;;1.23;;
16478;SDS011;8350;52.316;10.530;2023-11-21T18:00:00;1.25;;;1.13;;
16478;SDS011;8350;52.316;10.530;2023-11-21T18:02:27;1.02;;;0.93;;
16478;SDS011;8350;52.316;10.530;2023-11-21T18:05:08;1.98;;;1.27;;
16478;SDS011;8350;52.316;10.530;2023-11-21T18:07:37;0.90;;;0.80;;
16478;SDS011;8350;52.316;10.530;2023-11-21T18:10:06;1.20;;;0.90;;
16478;SDS011;8350;52.316;10.530;2023-11-21T18:12:35;1.55;;;1.33;;
16478;SDS011;8350;52.316;10.530;2023-11-21T18:15:02;1.55;;;1.40;;
16478;SDS011;8350;52.316;10.530;2023-11-21T18:17:30;0.90;;;0.90;;
16478;SDS011;8350;52.316;10.530;2023-11-21T18:19:57;1.58;;;1.30;;
16478;SDS011;8350;52.316;10.530;2023-11-21T18:22:24;1.88;;;1.65;;
16478;SDS011;8350;52.316;10.530;2023-11-21T18:24:52;1.65;;;1.55;;
16478;SDS011;8350;52.316;10.530;2023-11-21T18:27:20;1.77;;;1.67;;
16478;SDS011;8350;52.316;10.530;2023-11-21T18:29:52;1.55;;;1.45;;
16478;SDS011;8350;52.316;10.530;2023-11-21T18:32:19;1.10;;;1.05;;
16478;SDS011;8350;52.316;10.530;2023-11-21T18:34:48;1.60;;;1.02;;
16478;SDS011;8350;52.316;10.530;2023-11-21T18:37:15;1.65;;;1.48;;
16478;SDS011;8350;52.316;10.530;2023-11-21T18:39:43;1.98;;;1.65;;
16478;SDS011;8350;52.316;10.530;2023-11-21T18:42:10;1.38;;;1.27;;
16478;SDS011;8350;52.316;10.530;2023-11-21T18:44:42;2.15;;;1.10;;
16478;SDS011;8350;52.316;10.530;2023-11-21T18:47:09;1.25;;;1.15;;
16478;SDS011;8350;52.316;10.530;2023-11-21T18:49:37;2.00;;;1.90;;
16478;SDS011;8350;52.316;10.530;2023-11-21T18:52:05;1.60;;;1.27;;
16478;SDS011;8350;52.316;10.530;2023-11-21T18:54:32;1.65;;;1.55;;
16478;SDS011;8350;52.316;10.530;2023-11-21T18:56:59;1.52;;;1.42;;
16478;SDS011;8350;52.316;10.530;2023-11-21T18:59:26;2.63;;;1.85;;
16478;SDS011;8350;52.316;10.530;2023-11-21T19:01:54;2.15;;;1.17;;
16478;SDS011;8350;52.316;10.530;2023-11-21T19:04:21;1.17;;;1.10;;
16478;SDS011;8350;52.316;10.530;2023-11-21T19:06:49;1.70;;;1.60;;
16478;SDS011;8350;52.316;10.530;2023-11-21T19:09:17;1.63;;;1.45;;
16478;SDS011;8350;52.316;10.530;2023-11-21T19:11:44;1.48;;;1.05;;
16478;SDS011;8350;52.316;10.530;2023-11-21T19:14:12;1.15;;;0.95;;
16478;SDS011;8350;52.316;10.530;2023-11-21T19:16:42;1.80;;;1.15;;
16478;SDS011;8350;52.316;10.530;2023-11-21T19:19:12;1.27;;;0.90;;
16478;SDS011;8350;52.316;10.530;2023-11-21T19:21:39;1.80;;;1.38;;
16478;SDS011;8350;52.316;10.530;2023-11-21T19:24:06;1.13;;;1.02;;
16478;SDS011;8350;52.316;10.530;2023-11-21T19:26:36;2.55;;;1.23;;
16478;SDS011;8350;52.316;10.530;2023-11-21T19:29:03;1.63;;;1.08;;
16478;SDS011;8350;52.316;10.530;2023-11-21T19:31:30;1.30;;;0.98;;
16478;SDS011;8350;52.316;10.530;2023-11-21T19:33:57;1.60;;;1.27;;
16478;SDS011;8350;52.316;10.530;2023-11-21T19:36:26;1.17;;;1.10;;
16478;SDS011;8350;52.316;10.530;2023-11-21T19:38:52;0.85;;;0.77;;
16478;SDS011;8350;52.316;10.530;2023-11-21T19:41:19;0.65;;;0.65;;
16478;SDS011;8350;52.316;10.530;2023-11-21T19:43:47;0.65;;;0.57;;
16478;SDS011;8350;52.316;10.530;2023-11-21T19:46:16;1.48;;;1.33;;
16478;SDS011;8350;52.316;10.530;2023-11-21T19:48:43;0.50;;;0.43;;
16478;SDS011;8350;52.316;10.530;2023-11-21T19:51:11;0.60;;;0.60;;
16478;SDS011;8350;52.316;10.530;2023-11-21T19:53:39;0.73;;;0.73;;
16478;SDS011;8350;52.316;10.530;2023-11-21T19:56:06;0.82;;;0.82;;
16478;SDS011;8350;52.316;10.530;2023-11-21T19:58:34;1.08;;;0.98;;
16478;SDS011;8350;52.316;10.530;2023-11-21T20:01:01;1.30;;;1.02;;
16478;SDS011;8350;52.316;10.530;2023-11-21T20:03:29;0.43;;;0.43;;
16478;SDS011;8350;52.316;10.530;2023-11-21T20:05:57;0.93;;;0.65;;
16478;SDS011;8350;52.316;10.530;2023-11-21T20:08:25;1.42;;;1.00;;
16478;SDS011;8350;52.316;10.530;2023-11-21T20:10:53;0.68;;;0.68;;
16478;SDS011;8350;52.316;10.530;2023-11-21T20:13:20;1.10;;;1.00;;
16478;SDS011;8350;52.316;10.530;2023-11-21T20:15:47;1.40;;;0.90;;
16478;SDS011;8350;52.316;10.530;2023-11-21T20:18:14;1.02;;;1.02;;
16478;SDS011;8350;52.316;10.530;2023-11-21T20:20:40;0.68;;;0.68;;
16478;SDS011;8350;52.316;10.530;2023-11-21T20:23:07;0.68;;;0.68;;
16478;SDS011;8350;52.316;10.530;2023-11-21T20:25:34;1.48;;;0.47;;
16478;SDS011;8350;52.316;10.530;2023-11-21T20:28:03;1.52;;;0.93;;
16478;SDS011;8350;52.316;10.530;2023-11-21T20:30:32;1.75;;;1.30;;
16478;SDS011;8350;52.316;10.530;2023-11-21T20:33:05;1.05;;;1.05;;
16478;SDS011;8350;52.316;10.530;2023-11-21T20:35:33;1.90;;;0.52;;
16478;SDS011;8350;52.316;10.530;2023-11-21T20:38:01;0.75;;;0.75;;
16478;SDS011;8350;52.316;10.530;2023-11-21T20:40:28;0.65;;;0.65;;
16478;SDS011;8350;52.316;10.530;2023-11-21T20:42:55;0.70;;;0.70;;
16478;SDS011;8350;52.316;10.530;2023-11-21T20:45:28;0.88;;;0.88;;
16478;SDS011;8350;52.316;10.530;2023-11-21T20:47:55;0.80;;;0.80;;
16478;SDS011;8350;52.316;10.530;2023-11-21T20:50:22;1.63;;;1.52;;
16478;SDS011;8350;52.316;10.530;2023-11-21T20:52:49;0.93;;;0.93;;
16478;SDS011;8350;52.316;10.530;2023-11-21T20:55:18;0.40;;;0.40;;
16478;SDS011;8350;52.316;10.530;2023-11-21T20:57:47;2.92;;;1.05;;
16478;SDS011;8350;52.316;10.530;2023-11-21T21:03:09;1.98;;;0.82;;
16478;SDS011;8350;52.316;10.530;2023-11-21T21:05:39;1.85;;;1.02;;
16478;SDS011;8350;52.316;10.530;2023-11-21T21:08:08;0.75;;;0.75;;
16478;SDS011;8350;52.316;10.530;2023-11-21T21:10:38;0.77;;;0.77;;
16478;SDS011;8350;52.316;10.530;2023-11-21T21:13:07;0.90;;;0.90;;
16478;SDS011;8350;52.316;10.530;2023-11-21T21:15:36;1.23;;;1.13;;
16478;SDS011;8350;52.316;10.530;2023-11-21T21:18:15;1.20;;;0.80;;
16478;SDS011;8350;52.316;10.530;2023-11-21T21:20:47;1.23;;;1.13;;
16478;SDS011;8350;52.316;10.530;2023-11-21T21:23:17;1.10;;;0.95;;
16478;SDS011;8350;52.316;10.530;2023-11-21T21:25:46;0.88;;;0.88;;
16478;SDS011;8350;52.316;10.530;2023-11-21T21:28:18;0.98;;;0.75;;
16478;SDS011;8350;52.316;10.530;2023-11-21T21:30:47;1.17;;;0.90;;
16478;SDS011;8350;52.316;10.530;2023-11-21T21:33:21;1.27;;;0.80;;
16478;SDS011;8350;52.316;10.530;2023-11-21T21:36:02;1.05;;;0.77;;
16478;SDS011;8350;52.316;10.530;2023-11-21T21:38:31;0.93;;;0.60;;
16478;SDS011;8350;52.316;10.530;2023-11-21T21:40:58;1.13;;;0.93;;
16478;SDS011;8350;52.316;10.530;2023-11-21T21:43:29;4.57;;;1.13;;
16478;SDS011;8350;52.316;10.530;2023-11-21T21:45:56;1.20;;;0.70;;
16478;SDS011;8350;52.316;10.530;2023-11-21T21:48:24;0.73;;;0.68;;
16478;SDS011;8350;52.316;10.530;2023-11-21T21:50:53;0.77;;;0.77;;
16478;SDS011;8350;52.316;10.530;2023-11-21T21:53:24;1.13;;;1.02;;
16478;SDS011;8350;52.316;10.530;2023-11-21T21:55:51;2.47;;;0.95;;
16478;SDS011;8350;52.316;10.530;2023-11-21T21:58:18;1.52;;;0.70;;
16478;SDS011;8350;52.316;10.530;2023-11-21T22:00:48;1.23;;;0.82;;
16478;SDS011;8350;52.316;10.530;2023-11-21T22:03:15;0.80;;;0.80;;
16478;SDS011;8350;52.316;10.530;2023-11-21T22:05:46;1.50;;;0.88;;
16478;SDS011;8350;52.316;10.530;2023-11-21T22:08:43;2.05;;;1.13;;
16478;SDS011;8350;52.316;10.530;2023-11-21T22:11:03;1.33;;;1.05;;
16478;SDS011;8350;52.316;10.530;2023-11-21T22:13:30;0.75;;;0.75;;
16478;SDS011;8350;52.316;10.530;2023-11-21T22:15:56;1.80;;;1.33;;
16478;SDS011;8350;52.316;10.530;2023-11-21T22:18:23;1.73;;;1.17;;
16478;SDS011;8350;52.316;10.530;2023-11-21T22:20:54;0.80;;;0.80;;
16478;SDS011;8350;52.316;10.530;2023-11-21T22:23:21;0.68;;;0.68;;
16478;SDS011;8350;52.316;10.530;2023-11-21T22:25:47;0.60;;;0.60;;
16478;SDS011;8350;52.316;10.530;2023-11-21T22:28:30;0.90;;;0.90;;
16478;SDS011;8350;52.316;10.530;2023-11-21T22:30:59;0.60;;;0.60;;
16478;SDS011;8350;52.316;10.530;2023-11-21T22:33:37;1.70;;;0.93;;
16478;SDS011;8350;52.316;10.530;2023-11-21T22:36:12;0.52;;;0.52;;
16478;SDS011;8350;52.316;10.530;2023-11-21T22:38:42;0.80;;;0.80;;
16478;SDS011;8350;52.316;10.530;2023-11-21T22:41:09;1.20;;;0.80;;
16478;SDS011;8350;52.316;10.530;2023-11-21T22:43:36;0.60;;;0.60;;
16478;SDS011;8350;52.316;10.530;2023-11-21T22:46:03;2.08;;;0.55;;
16478;SDS011;8350;52.316;10.530;2023-11-21T22:48:32;0.35;;;0.35;;
16478;SDS011;8350;52.316;10.530;2023-11-21T22:50:59;1.08;;;0.88;;
16478;SDS011;8350;52.316;10.530;2023-11-21T22:53:30;0.68;;;0.68;;
16478;SDS011;8350;52.316;10.530;2023-11-21T22:56:12;1.10;;;1.00;;
16478;SDS011;8350;52.316;10.530;2023-11-21T22:59:01;0.70;;;0.70;;
16478;SDS011;8350;52.316;10.530;2023-11-21T23:01:29;1.00;;;0.85;;
16478;SDS011;8350;52.316;10.530;2023-11-21T23:03:58;1.35;;;1.25;;
16478;SDS011;8350;52.316;10.530;2023-11-21T23:06:31;0.60;;;0.60;;
16478;SDS011;8350;52.316;10.530;2023-11-21T23:09:03;0.70;;;0.68;;
16478;SDS011;8350;52.316;10.530;2023-11-21T23:11:30;1.00;;;0.77;;
16478;SDS011;8350;52.316;10.530;2023-11-21T23:13:57;0.68;;;0.65;;
16478;SDS011;8350;52.316;10.530;2023-11-21T23:16:45;0.73;;;0.68;;
16478;SDS011;8350;52.316;10.530;2023-11-21T23:19:27;0.55;;;0.55;;
16478;SDS011;8350;52.316;10.530;2023-11-21T23:21:56;0.70;;;0.70;;
16478;SDS011;8350;52.316;10.530;2023-11-21T23:24:24;1.63;;;0.77;;
16478;SDS011;8350;52.316;10.530;2023-11-21T23:26:51;1.08;;;0.98;;
16478;SDS011;8350;52.316;10.530;2023-11-21T23:29:19;1.27;;;0.75;;
16478;SDS011;8350;52.316;10.530;2023-11-21T23:31:48;1.45;;;1.08;;
16478;SDS011;8350;52.316;10.530;2023-11-21T23:34:17;1.42;;;1.33;;
16478;SDS011;8350;52.316;10.530;2023-11-21T23:36:48;3.65;;;1.13;;
16478;SDS011;8350;52.316;10.530;2023-11-21T23:39:17;0.93;;;0.77;;
16478;SDS011;8350;52.316;10.530;2023-11-21T23:41:52;0.90;;;0.90;;
16478;SDS011;8350;52.316;10.530;2023-11-21T23:44:33;0.55;;;0.40;;
16478;SDS011;8350;52.316;10.530;2023-11-21T23:47:01;1.67;;;1.08;;
16478;SDS011;8350;52.316;10.530;2023-11-21T23:49:29;1.13;;;0.88;;
16478;SDS011;8350;52.316;10.530;2023-11-21T23:51:57;0.50;;;0.40;;
16478;SDS011;8350;52.316;10.530;2023-11-21T23:54:26;0.52;;;0.47;;
16478;SDS011;8350;52.316;10.530;2023-11-21T23:56:54;1.73;;;1.20;;
16478;SDS011;8350;52.316;10.530;2023-11-21T23:59:22;1.38;;;0.93;;
